Time;durP1;ratioP1;P1;durP2;ratioP2;P2;SDS_P1;SDS_P2;PMS_P1;PMS_P2;Temp;Humidity;BMP_temperature;BMP_pressure;BME280_temperature;BME280_humidity;BME280_pressure;Samples;Min_cycle;Max_cycle;Signal;HPM_P1;HPM_P2
2023/08/20 00:00:38;;;;;;;2.57;2.17;;;30.20;50.10;;;;;;4975303;28;92784;-59
2023/08/20 00:03:11;;;;;;;3.60;2.40;;;30.10;50.00;;;;;;4975774;28;92866;-59
2023/08/20 00:05:40;;;;;;;2.97;2.10;;;30.10;49.90;;;;;;4975654;28;93424;-59
2023/08/20 00:08:08;;;;;;;4.23;1.93;;;30.10;49.90;;;;;;4975679;28;93121;-59
2023/08/20 00:10:36;;;;;;;3.10;2.17;;;30.10;49.90;;;;;;4975770;28;92146;-59
2023/08/20 00:13:05;;;;;;;2.80;2.20;;;30.10;49.90;;;;;;4975683;28;91982;-59
2023/08/20 00:15:35;;;;;;;3.67;2.20;;;30.10;49.90;;;;;;4975214;28;92185;-59
2023/08/20 00:18:03;;;;;;;3.20;2.03;;;30.10;49.90;;;;;;4973880;28;93132;-59
2023/08/20 00:20:33;;;;;;;2.80;1.60;;;30.10;49.90;;;;;;4975492;28;94420;-59
2023/08/20 00:23:02;;;;;;;3.33;2.10;;;30.10;49.90;;;;;;4975895;28;92826;-59
2023/08/20 00:25:31;;;;;;;3.10;1.90;;;30.00;49.80;;;;;;4975166;28;92135;-59
2023/08/20 00:27:59;;;;;;;2.93;1.80;;;30.00;49.80;;;;;;4974244;28;93994;-59
2023/08/20 00:30:27;;;;;;;5.40;2.10;;;30.00;49.80;;;;;;4974792;28;94971;-59
2023/08/20 00:32:56;;;;;;;2.97;1.80;;;30.00;49.80;;;;;;4975743;28;92013;-59
2023/08/20 00:35:25;;;;;;;2.53;2.00;;;30.00;49.80;;;;;;4975479;28;92067;-59
2023/08/20 00:37:53;;;;;;;4.40;1.97;;;30.00;49.80;;;;;;4974814;28;92955;-59
2023/08/20 00:40:21;;;;;;;5.80;1.90;;;30.00;49.80;;;;;;4974809;28;93836;-60
2023/08/20 00:42:49;;;;;;;2.77;1.90;;;30.00;49.80;;;;;;4974724;28;92088;-59
2023/08/20 00:45:17;;;;;;;2.23;1.83;;;30.00;49.80;;;;;;4976204;28;91388;-59
2023/08/20 00:47:45;;;;;;;2.10;1.90;;;30.00;49.80;;;;;;4975520;28;93094;-59
2023/08/20 00:50:14;;;;;;;3.00;2.03;;;30.00;49.70;;;;;;4975285;28;92823;-59
2023/08/20 00:52:42;;;;;;;2.73;1.70;;;30.00;49.70;;;;;;4974738;28;93305;-59
2023/08/20 00:55:12;;;;;;;3.53;2.03;;;30.00;49.70;;;;;;4974657;28;92103;-59
2023/08/20 00:57:41;;;;;;;3.40;2.33;;;30.00;49.70;;;;;;4974959;28;93077;-59
2023/08/20 01:00:10;;;;;;;4.67;2.10;;;30.00;49.70;;;;;;4975552;28;92772;-59
2023/08/20 01:02:39;;;;;;;3.23;2.00;;;30.00;49.80;;;;;;4975887;28;92437;-59
2023/08/20 01:05:08;;;;;;;3.17;2.27;;;30.00;49.80;;;;;;4974449;28;92637;-59
2023/08/20 01:07:44;;;;;;;3.13;2.10;;;30.00;49.80;;;;;;4974840;28;94249;-59
2023/08/20 01:10:15;;;;;;;2.97;1.60;;;30.00;49.80;;;;;;4974711;28;92562;-59
2023/08/20 01:12:43;;;;;;;3.60;1.93;;;30.00;49.80;;;;;;4975406;28;92688;-59
2023/08/20 01:15:13;;;;;;;2.37;1.70;;;30.00;49.80;;;;;;4974657;28;92865;-59
2023/08/20 01:17:41;;;;;;;4.80;2.40;;;30.00;49.80;;;;;;4973939;28;94024;-59
2023/08/20 01:20:11;;;;;;;4.30;1.60;;;30.00;49.80;;;;;;4974721;28;92492;-59
2023/08/20 01:23:00;;;;;;;2.60;2.00;;;30.00;49.80;;;;;;4975437;28;92106;-59
2023/08/20 01:25:33;;;;;;;3.17;1.80;;;30.00;49.80;;;;;;4974365;28;92786;-59
2023/08/20 01:28:13;;;;;;;3.03;2.23;;;30.00;49.80;;;;;;4974149;28;94204;-59
2023/08/20 01:30:42;;;;;;;4.77;1.97;;;29.90;49.70;;;;;;4977353;28;93807;-59
2023/08/20 01:33:12;;;;;;;4.67;1.83;;;29.90;49.70;;;;;;4978356;28;91975;-59
2023/08/20 01:35:40;;;;;;;1.90;1.53;;;29.90;49.70;;;;;;4978082;28;91106;-59
2023/08/20 01:38:08;;;;;;;3.23;1.80;;;29.90;49.70;;;;;;4976847;28;94229;-59
2023/08/20 01:40:36;;;;;;;3.00;1.80;;;29.90;49.70;;;;;;4976786;28;92775;-59
2023/08/20 01:43:04;;;;;;;3.50;1.60;;;29.90;49.70;;;;;;4976802;28;93074;-59
2023/08/20 01:45:32;;;;;;;3.17;1.90;;;29.90;49.70;;;;;;4977581;28;91823;-59
2023/08/20 01:48:02;;;;;;;2.00;1.53;;;29.90;49.70;;;;;;4977894;28;93139;-59
2023/08/20 01:50:30;;;;;;;4.30;2.20;;;29.80;50.30;;;;;;4977042;28;93895;-59
2023/08/20 01:52:58;;;;;;;2.80;2.30;;;29.80;49.60;;;;;;4977259;28;91959;-59
2023/08/20 01:55:26;;;;;;;2.27;1.80;;;29.80;50.30;;;;;;4976463;28;92113;-59
2023/08/20 01:57:58;;;;;;;3.23;2.53;;;29.80;49.60;;;;;;4977404;28;93098;-59
2023/08/20 02:00:28;;;;;;;3.47;2.37;;;29.80;49.70;;;;;;4977916;28;93718;-59
2023/08/20 02:02:57;;;;;;;6.50;3.17;;;29.80;49.70;;;;;;4978086;28;91893;-59
2023/08/20 02:05:26;;;;;;;5.03;3.03;;;29.80;49.70;;;;;;4977660;28;92159;-59
2023/08/20 02:07:54;;;;;;;5.57;3.93;;;29.80;49.70;;;;;;4976934;28;95175;-59
2023/08/20 02:10:23;;;;;;;8.17;4.57;;;29.80;49.70;;;;;;4977225;28;93684;-59
2023/08/20 02:12:51;;;;;;;10.13;6.50;;;29.80;49.70;;;;;;4977544;28;91781;-59
2023/08/20 02:15:19;;;;;;;14.27;6.00;;;29.70;49.60;;;;;;4976714;28;92600;-60
2023/08/20 02:17:47;;;;;;;9.47;5.17;;;29.80;50.30;;;;;;4977296;28;91906;-59
2023/08/20 02:20:15;;;;;;;8.93;5.97;;;29.80;49.70;;;;;;4976609;28;93888;-59
2023/08/20 02:22:44;;;;;;;10.93;6.70;;;29.80;49.70;;;;;;4977293;28;92038;-59
2023/08/20 02:25:15;;;;;;;7.67;5.57;;;29.70;49.70;;;;;;4976971;28;91284;-59
2023/08/20 02:27:43;;;;;;;10.17;6.30;;;29.80;49.70;;;;;;4977363;28;94194;-59
2023/08/20 02:30:13;;;;;;;10.60;6.37;;;29.90;49.80;;;;;;4977008;28;93842;-59
2023/08/20 02:32:41;;;;;;;8.93;6.63;;;29.80;49.80;;;;;;4976961;28;92720;-59
2023/08/20 02:35:09;;;;;;;10.80;7.33;;;29.80;49.80;;;;;;4977236;28;92325;-59
2023/08/20 02:37:38;;;;;;;11.10;6.17;;;29.80;49.80;;;;;;4976893;28;94099;-59
2023/08/20 02:40:10;;;;;;;11.53;7.10;;;29.70;49.70;;;;;;4977185;28;92734;-59
2023/08/20 02:42:38;;;;;;;11.00;7.43;;;29.80;49.80;;;;;;4978482;28;92072;-59
2023/08/20 02:45:07;;;;;;;13.07;7.17;;;29.70;49.70;;;;;;4980216;28;92068;-59
2023/08/20 02:47:35;;;;;;;16.13;8.33;;;29.70;49.70;;;;;;4979376;28;93212;-59
2023/08/20 02:50:04;;;;;;;12.03;8.50;;;29.70;49.70;;;;;;4979666;28;92760;-59
2023/08/20 02:52:32;;;;;;;10.93;7.10;;;29.70;49.70;;;;;;4979909;28;92111;-59
2023/08/20 02:55:00;;;;;;;12.90;7.90;;;29.70;49.80;;;;;;4979849;28;92138;-59
2023/08/20 02:57:29;;;;;;;13.43;9.50;;;29.70;49.80;;;;;;4979401;28;94182;-59
2023/08/20 02:59:58;;;;;;;14.47;9.10;;;29.70;49.80;;;;;;4979330;28;94093;-59
2023/08/20 03:02:26;;;;;;;15.50;10.03;;;29.70;49.80;;;;;;4980180;28;92018;-59
2023/08/20 03:04:55;;;;;;;13.20;8.57;;;29.70;49.80;;;;;;4979627;28;92096;-59
2023/08/20 03:07:23;;;;;;;20.47;9.47;;;29.70;49.80;;;;;;4979677;28;93308;-59
2023/08/20 03:09:52;;;;;;;13.63;9.57;;;29.70;49.80;;;;;;4979856;28;93859;-59
2023/08/20 03:12:20;;;;;;;17.13;10.23;;;29.70;49.80;;;;;;4979532;28;92026;-59
2023/08/20 03:14:49;;;;;;;15.57;9.93;;;29.70;49.80;;;;;;4979613;28;91501;-59
2023/08/20 03:17:17;;;;;;;15.83;9.40;;;29.70;49.80;;;;;;4979743;28;93240;-59
2023/08/20 03:19:54;;;;;;;16.43;10.00;;;29.70;49.80;;;;;;4978776;28;92673;-59
2023/08/20 03:22:23;;;;;;;14.90;9.33;;;29.70;49.80;;;;;;4978445;28;93091;-59
2023/08/20 03:24:51;;;;;;;16.10;9.17;;;29.60;49.70;;;;;;4979306;28;92084;-59
2023/08/20 03:27:19;;;;;;;16.60;9.47;;;29.60;49.70;;;;;;4979067;28;93134;-59
2023/08/20 03:29:48;;;;;;;17.30;8.63;;;29.60;49.80;;;;;;4978655;28;94000;-59
2023/08/20 03:32:16;;;;;;;13.20;8.27;;;29.60;49.70;;;;;;4979487;28;92115;-59
2023/08/20 03:34:44;;;;;;;16.13;8.27;;;29.60;49.70;;;;;;4978591;28;92063;-59
2023/08/20 03:37:13;;;;;;;15.50;8.67;;;29.60;49.70;;;;;;4979083;28;93132;-59
2023/08/20 03:39:41;;;;;;;14.50;8.80;;;29.60;49.70;;;;;;4978656;28;92910;-59
2023/08/20 03:42:09;;;;;;;11.40;7.60;;;29.60;49.80;;;;;;4978521;28;91940;-59
2023/08/20 03:44:37;;;;;;;12.50;8.07;;;29.60;49.70;;;;;;4978686;28;92065;-59
2023/08/20 03:47:07;;;;;;;12.57;7.10;;;29.60;49.70;;;;;;4978271;28;94176;-59
2023/08/20 03:49:36;;;;;;;11.10;6.97;;;29.60;49.80;;;;;;4978335;28;93789;-58
2023/08/20 03:52:06;;;;;;;12.63;7.23;;;29.60;49.80;;;;;;4979185;28;92093;-59
2023/08/20 03:54:34;;;;;;;10.97;7.07;;;29.60;49.70;;;;;;4977995;28;92138;-59
2023/08/20 03:57:03;;;;;;;11.37;6.37;;;29.60;49.70;;;;;;4978588;28;94073;-59
2023/08/20 03:59:31;;;;;;;12.03;6.43;;;29.60;49.70;;;;;;4978998;28;92832;-59
2023/08/20 04:01:59;;;;;;;10.30;6.27;;;29.50;49.70;;;;;;4979205;28;92073;-59
2023/08/20 04:04:29;;;;;;;10.47;6.77;;;29.50;49.70;;;;;;4979014;28;91381;-59
2023/08/20 04:06:57;;;;;;;9.23;5.90;;;29.50;49.70;;;;;;4978975;28;94148;-59
2023/08/20 04:09:25;;;;;;;10.70;6.97;;;29.50;49.70;;;;;;4978531;28;94051;-59
2023/08/20 04:11:53;;;;;;;9.73;5.67;;;29.50;50.30;;;;;;4978724;28;92828;-59
2023/08/20 04:14:21;;;;;;;9.77;5.70;;;29.50;49.70;;;;;;4978998;28;92089;-59
2023/08/20 04:16:49;;;;;;;8.47;5.63;;;29.50;49.70;;;;;;4978703;28;93039;-59
2023/08/20 04:19:18;;;;;;;10.67;6.40;;;29.50;49.70;;;;;;4977961;28;93894;-59
2023/08/20 04:21:47;;;;;;;7.60;5.33;;;29.50;50.30;;;;;;4978830;28;92137;-59
2023/08/20 04:24:15;;;;;;;10.73;6.43;;;29.50;49.70;;;;;;4978603;28;92132;-59
2023/08/20 04:26:44;;;;;;;7.77;5.30;;;29.50;49.70;;;;;;4978313;28;93147;-59
2023/08/20 04:29:12;;;;;;;7.37;5.23;;;29.50;49.70;;;;;;4978921;28;92730;-59
2023/08/20 04:31:40;;;;;;;7.80;4.80;;;29.50;49.70;;;;;;4978630;28;92270;-59
2023/08/20 04:34:08;;;;;;;7.47;4.67;;;29.50;49.70;;;;;;4977993;28;92129;-59
2023/08/20 04:36:36;;;;;;;9.27;5.97;;;29.50;49.70;;;;;;4977023;28;95107;-59
2023/08/20 04:39:06;;;;;;;10.17;5.90;;;29.50;49.70;;;;;;4978064;28;93328;-59
2023/08/20 04:41:34;;;;;;;10.30;6.70;;;29.50;49.70;;;;;;4978515;28;91966;-59
2023/08/20 04:44:02;;;;;;;10.33;6.53;;;29.50;49.70;;;;;;4977932;28;92041;-59
2023/08/20 04:46:30;;;;;;;8.43;6.03;;;29.50;49.70;;;;;;4977881;28;94162;-59
2023/08/20 04:48:58;;;;;;;10.17;6.37;;;29.50;49.70;;;;;;4977507;28;94052;-59
2023/08/20 04:51:26;;;;;;;11.90;6.47;;;29.50;49.70;;;;;;4978508;28;91989;-59
2023/08/20 04:53:54;;;;;;;10.90;6.33;;;29.50;49.70;;;;;;4978679;28;91365;-59
2023/08/20 04:56:24;;;;;;;10.47;6.73;;;29.50;49.70;;;;;;4978272;28;93124;-59
2023/08/20 04:58:52;;;;;;;11.87;7.60;;;29.50;49.70;;;;;;4978337;28;92843;-59
2023/08/20 05:01:20;;;;;;;12.93;7.90;;;29.50;49.60;;;;;;4977220;28;92806;-59
2023/08/20 05:03:48;;;;;;;11.83;8.30;;;29.60;49.60;;;;;;4987472;28;92201;-59
2023/08/20 05:06:16;;;;;;;12.90;7.80;;;29.70;49.40;;;;;;4994404;28;93918;-59
2023/08/20 05:08:44;;;;;;;12.00;7.50;;;29.90;49.30;;;;;;4994831;28;93822;-59
2023/08/20 05:11:13;;;;;;;12.37;8.00;;;30.10;48.90;;;;;;4995047;28;92121;-59
2023/08/20 05:13:42;;;;;;;12.27;7.83;;;30.20;48.70;;;;;;4994619;28;92216;-59
2023/08/20 05:16:10;;;;;;;12.17;7.97;;;30.20;48.80;;;;;;4994281;28;93223;-59
2023/08/20 05:18:39;;;;;;;11.80;8.33;;;30.20;49.30;;;;;;4995297;28;92600;-59
2023/08/20 05:21:07;;;;;;;12.33;8.70;;;30.10;48.90;;;;;;4994279;28;92154;-59
2023/08/20 05:23:35;;;;;;;14.27;8.53;;;30.10;48.90;;;;;;4994970;28;92112;-59
2023/08/20 05:26:03;;;;;;;15.70;8.07;;;30.10;48.90;;;;;;4994167;28;94211;-59
2023/08/20 05:28:31;;;;;;;14.23;8.57;;;30.00;48.90;;;;;;4994504;28;93804;-59
2023/08/20 05:31:01;;;;;;;16.17;10.03;;;30.00;48.90;;;;;;4994149;28;92130;-59
2023/08/20 05:33:29;;;;;;;13.50;9.13;;;30.00;48.90;;;;;;4994368;28;92132;-59
2023/08/20 05:35:57;;;;;;;13.40;8.60;;;30.00;48.90;;;;;;4994088;28;93114;-59
2023/08/20 05:38:25;;;;;;;16.97;9.50;;;30.00;48.90;;;;;;4994132;28;92927;-59
2023/08/20 05:40:53;;;;;;;15.90;9.70;;;30.00;48.90;;;;;;4994204;28;92056;-59
2023/08/20 05:43:21;;;;;;;15.00;10.03;;;30.00;48.90;;;;;;4994101;28;91612;-59
2023/08/20 05:45:49;;;;;;;15.23;9.03;;;30.00;48.90;;;;;;4992999;28;93195;-59
2023/08/20 05:48:19;;;;;;;17.77;10.53;;;30.00;48.90;;;;;;4994348;28;93949;-58
2023/08/20 05:50:47;;;;;;;13.73;8.67;;;30.00;48.90;;;;;;4992774;28;93614;-59
2023/08/20 05:53:15;;;;;;;16.63;9.73;;;30.00;48.90;;;;;;4994030;28;92732;-59
2023/08/20 05:55:43;;;;;;;17.77;10.70;;;30.10;48.90;;;;;;4993839;28;92894;-59
2023/08/20 05:58:11;;;;;;;22.57;11.07;;;30.10;48.90;;;;;;4993991;28;92117;-59
2023/08/20 06:00:39;;;;;;;17.67;10.13;;;30.10;48.90;;;;;;4994009;28;92059;-59
2023/08/20 06:03:08;;;;;;;20.83;10.77;;;30.10;48.80;;;;;;4993242;28;92138;-59
2023/08/20 06:05:38;;;;;;;17.37;10.03;;;30.10;48.80;;;;;;4992846;28;93126;-59
2023/08/20 06:08:06;;;;;;;16.30;9.97;;;30.10;48.80;;;;;;4977978;28;93881;-59
2023/08/20 06:10:34;;;;;;;14.33;11.03;;;30.20;48.90;;;;;;4974259;28;92012;-59
2023/08/20 06:13:02;;;;;;;19.00;10.83;;;30.20;48.90;;;;;;4974156;28;92502;-59
2023/08/20 06:15:31;;;;;;;13.97;9.70;;;30.20;48.90;;;;;;4972450;28;94014;-59
2023/08/20 06:17:59;;;;;;;17.03;10.23;;;30.20;48.90;;;;;;4976072;28;92597;-59
2023/08/20 06:20:27;;;;;;;17.17;10.27;;;30.20;48.90;;;;;;4980973;28;92139;-59
2023/08/20 06:22:57;;;;;;;18.43;10.33;;;30.20;48.80;;;;;;4977534;28;92114;-59
2023/08/20 06:25:25;;;;;;;16.63;10.07;;;30.20;48.80;;;;;;4985471;28;93104;-59
2023/08/20 06:27:53;;;;;;;15.07;9.50;;;30.20;48.80;;;;;;4996329;28;93159;-59
2023/08/20 06:30:21;;;;;;;18.07;10.17;;;30.20;48.80;;;;;;4997190;28;92582;-59
2023/08/20 06:32:49;;;;;;;13.50;9.37;;;30.20;49.40;;;;;;4996290;28;91891;-59
2023/08/20 06:35:17;;;;;;;16.63;9.57;;;30.20;48.80;;;;;;4997057;28;93174;-59
2023/08/20 06:37:45;;;;;;;17.30;9.13;;;30.30;48.80;;;;;;4996484;28;92778;-59
2023/08/20 06:40:15;;;;;;;16.27;9.70;;;30.30;48.80;;;;;;4997141;28;93125;-59
2023/08/20 06:42:43;;;;;;;14.20;8.50;;;30.30;48.80;;;;;;4996130;28;92575;-59
2023/08/20 06:45:11;;;;;;;12.53;8.20;;;30.30;48.80;;;;;;4997334;28;92938;-59
2023/08/20 06:47:39;;;;;;;12.33;8.17;;;30.30;48.70;;;;;;4996980;28;96167;-59
2023/08/20 06:50:08;;;;;;;14.53;8.20;;;30.30;48.70;;;;;;4997208;28;92140;-59
2023/08/20 06:52:36;;;;;;;13.67;7.67;;;30.30;48.70;;;;;;4996992;28;92083;-60
2023/08/20 06:55:04;;;;;;;14.00;8.20;;;30.30;48.70;;;;;;4996806;28;92053;-59
2023/08/20 06:57:34;;;;;;;15.07;8.30;;;30.30;48.70;;;;;;4997237;28;92762;-59
2023/08/20 07:00:04;;;;;;;11.67;7.37;;;30.30;48.70;;;;;;4997654;28;92501;-59
2023/08/20 07:02:32;;;;;;;14.83;7.53;;;30.30;48.70;;;;;;4997051;28;92067;-59
2023/08/20 07:05:00;;;;;;;12.70;6.97;;;30.30;48.70;;;;;;4996344;28;94917;-60
2023/08/20 07:07:29;;;;;;;10.90;7.00;;;30.30;48.70;;;;;;4996319;28;94062;-60
2023/08/20 07:09:57;;;;;;;10.50;6.23;;;30.30;48.70;;;;;;4996949;28;92108;-60
2023/08/20 07:12:25;;;;;;;9.93;5.97;;;30.30;48.70;;;;;;4996313;28;92139;-60
2023/08/20 07:14:54;;;;;;;11.80;6.47;;;30.30;48.70;;;;;;4996781;28;94279;-60
2023/08/20 07:17:22;;;;;;;8.87;6.03;;;30.20;48.60;;;;;;4996799;28;92744;-60
2023/08/20 07:19:50;;;;;;;10.60;6.10;;;30.30;48.70;;;;;;4996852;28;92018;-60
2023/08/20 07:22:18;;;;;;;8.80;5.60;;;30.30;48.70;;;;;;4996853;28;91193;-60
2023/08/20 07:24:46;;;;;;;11.53;6.37;;;30.30;48.70;;;;;;4996887;28;92838;-60
2023/08/20 07:27:14;;;;;;;8.50;5.17;;;30.30;48.70;;;;;;4996036;28;93872;-60
2023/08/20 07:29:42;;;;;;;9.50;5.53;;;30.30;48.70;;;;;;4996378;28;92959;-60
2023/08/20 07:32:12;;;;;;;9.20;5.30;;;30.30;48.70;;;;;;4996477;28;92089;-60
2023/08/20 07:34:40;;;;;;;8.47;5.23;;;30.20;48.60;;;;;;4995753;28;94284;-59
2023/08/20 07:37:08;;;;;;;7.23;5.23;;;30.30;48.70;;;;;;4995592;28;92875;-60
2023/08/20 07:39:36;;;;;;;11.70;4.80;;;30.30;48.70;;;;;;4996778;28;92093;-60
2023/08/20 07:42:05;;;;;;;11.10;5.30;;;30.30;48.70;;;;;;4995966;28;92390;-60
2023/08/20 07:44:33;;;;;;;8.57;5.67;;;30.30;48.70;;;;;;4996012;28;94482;-60
2023/08/20 07:47:01;;;;;;;7.17;4.73;;;30.30;48.70;;;;;;4996000;28;93789;-60
2023/08/20 07:49:30;;;;;;;8.30;5.23;;;30.30;48.70;;;;;;4995945;28;92278;-60
2023/08/20 07:51:58;;;;;;;10.10;5.47;;;30.20;48.70;;;;;;4995696;28;92962;-60
2023/08/20 07:54:28;;;;;;;7.17;5.30;;;30.20;48.70;;;;;;4994756;28;94735;-60
2023/08/20 07:56:56;;;;;;;7.53;4.60;;;30.20;48.60;;;;;;4995625;28;93678;-60
2023/08/20 07:59:24;;;;;;;8.43;4.60;;;30.20;48.70;;;;;;4995643;28;92181;-60
2023/08/20 08:01:52;;;;;;;7.47;4.23;;;30.20;48.70;;;;;;4979605;28;92220;-60
2023/08/20 08:04:20;;;;;;;8.07;4.60;;;30.20;48.70;;;;;;4976020;28;94098;-60
2023/08/20 08:06:49;;;;;;;8.07;4.80;;;30.20;48.70;;;;;;4975758;28;92859;-60
2023/08/20 08:09:21;;;;;;;8.57;4.87;;;30.20;48.70;;;;;;4976086;28;92882;-60
2023/08/20 08:11:50;;;;;;;7.13;4.33;;;30.20;48.70;;;;;;4976395;28;91386;-60
2023/08/20 08:14:18;;;;;;;6.43;4.17;;;30.20;48.70;;;;;;4975794;28;94162;-59
2023/08/20 08:16:46;;;;;;;6.47;4.27;;;30.20;48.70;;;;;;4975104;28;93859;-60
2023/08/20 08:19:14;;;;;;;8.57;4.87;;;30.20;48.80;;;;;;4975043;28;93111;-60
2023/08/20 08:21:42;;;;;;;6.57;4.47;;;30.20;48.70;;;;;;4975481;28;92183;-60
2023/08/20 08:24:12;;;;;;;6.73;3.77;;;30.20;48.80;;;;;;4975638;28;93091;-60
2023/08/20 08:26:40;;;;;;;6.83;4.23;;;30.20;48.80;;;;;;4975549;28;92736;-60
2023/08/20 08:29:09;;;;;;;5.53;3.67;;;30.20;48.80;;;;;;4975823;28;92731;-59
2023/08/20 08:31:37;;;;;;;8.53;4.60;;;30.20;48.80;;;;;;4975735;28;92126;-60
2023/08/20 08:34:05;;;;;;;6.40;3.73;;;30.20;48.90;;;;;;4975525;28;93349;-60
2023/08/20 08:36:33;;;;;;;7.60;4.20;;;30.20;48.80;;;;;;4975428;28;93774;-59
2023/08/20 08:39:02;;;;;;;5.10;3.90;;;30.20;48.90;;;;;;4974272;28;92031;-60
2023/08/20 08:41:31;;;;;;;8.57;4.33;;;30.20;48.90;;;;;;4988141;28;92568;-59
2023/08/20 08:43:59;;;;;;;7.43;3.90;;;30.10;48.80;;;;;;4993879;28;95053;-60
2023/08/20 08:46:28;;;;;;;5.63;3.60;;;30.10;48.90;;;;;;4994737;28;94347;-60
2023/08/20 08:48:56;;;;;;;5.80;3.87;;;30.10;48.90;;;;;;4995481;28;92097;-60
2023/08/20 08:51:24;;;;;;;5.27;3.07;;;30.10;48.90;;;;;;4995164;28;92115;-59
2023/08/20 08:53:52;;;;;;;6.80;3.77;;;30.10;48.90;;;;;;4994418;28;92879;-59
2023/08/20 08:56:20;;;;;;;5.50;3.70;;;30.10;48.90;;;;;;4994822;28;94000;-59
2023/08/20 08:58:50;;;;;;;5.80;3.53;;;30.10;48.90;;;;;;4995096;28;92110;-60
2023/08/20 09:01:18;;;;;;;4.93;3.30;;;30.10;48.90;;;;;;4995347;28;91478;-59
2023/08/20 09:03:46;;;;;;;6.50;3.73;;;30.10;48.90;;;;;;4994844;28;94114;-59
2023/08/20 09:06:14;;;;;;;6.27;3.47;;;30.10;48.90;;;;;;4994054;28;93508;-59
2023/08/20 09:08:42;;;;;;;5.73;3.30;;;30.10;48.90;;;;;;4994256;28;93717;-59
2023/08/20 09:11:10;;;;;;;5.40;3.20;;;30.10;48.90;;;;;;4994579;28;92177;-59
2023/08/20 09:13:39;;;;;;;5.03;3.40;;;30.10;48.90;;;;;;4994625;28;93045;-59
2023/08/20 09:16:09;;;;;;;5.97;3.47;;;30.10;49.00;;;;;;4994630;28;92740;-59
2023/08/20 09:18:41;;;;;;;6.53;3.70;;;30.10;48.90;;;;;;4994660;28;91966;-59
2023/08/20 09:21:09;;;;;;;8.13;3.93;;;30.10;49.00;;;;;;4993843;28;92141;-59
2023/08/20 09:23:37;;;;;;;6.50;3.77;;;30.20;49.00;;;;;;4994678;28;94597;-59
2023/08/20 09:26:06;;;;;;;4.43;3.53;;;30.20;49.00;;;;;;4994769;28;93825;-59
2023/08/20 09:28:41;;;;;;;5.10;3.53;;;30.20;49.00;;;;;;4994712;28;91990;-59
2023/08/20 09:31:11;;;;;;;4.27;3.20;;;30.20;49.60;;;;;;4994296;28;92163;-59
2023/08/20 09:33:49;;;;;;;6.03;3.43;;;30.20;49.00;;;;;;4994074;28;93633;-59
2023/08/20 09:36:17;;;;;;;5.73;3.97;;;30.20;48.90;;;;;;4994395;28;93673;-59
2023/08/20 09:38:45;;;;;;;7.20;4.60;;;30.20;48.90;;;;;;4994127;28;91945;-59
2023/08/20 09:41:17;;;;;;;7.93;4.13;;;30.20;48.90;;;;;;4994666;28;92607;-59
2023/08/20 09:43:45;;;;;;;8.00;4.80;;;30.20;48.90;;;;;;4994170;28;94129;-59
2023/08/20 09:46:15;;;;;;;10.67;4.83;;;30.20;48.90;;;;;;4994639;28;92957;-59
2023/08/20 09:48:43;;;;;;;5.93;4.13;;;30.20;48.90;;;;;;4994002;28;92189;-59
2023/08/20 09:51:12;;;;;;;6.47;4.53;;;30.30;49.00;;;;;;4996111;28;91314;-59
2023/08/20 09:53:44;;;;;;;6.23;4.43;;;30.20;49.60;;;;;;4997040;28;92912;-59
2023/08/20 09:56:18;;;;;;;5.13;3.93;;;30.30;49.00;;;;;;4997456;28;93795;-59
2023/08/20 09:58:46;;;;;;;9.20;5.13;;;30.30;49.00;;;;;;4998389;28;93410;-59
2023/08/20 10:01:16;;;;;;;7.60;5.10;;;30.30;49.00;;;;;;4998635;28;92739;-59
2023/08/20 10:03:44;;;;;;;6.67;4.27;;;30.30;48.90;;;;;;4997624;28;92907;-59
2023/08/20 10:06:12;;;;;;;6.57;4.80;;;30.30;48.90;;;;;;4996782;28;94096;-59
2023/08/20 10:08:40;;;;;;;4.77;4.27;;;30.30;49.00;;;;;;4998708;28;92549;-59
2023/08/20 10:11:09;;;;;;;5.40;3.63;;;30.30;48.90;;;;;;4997491;28;92596;-59
2023/08/20 10:13:37;;;;;;;8.70;4.10;;;30.30;48.90;;;;;;4997630;28;94079;-59
2023/08/20 10:16:05;;;;;;;9.33;4.73;;;30.40;49.70;;;;;;4997220;28;92719;-59
2023/08/20 10:18:36;;;;;;;7.87;4.67;;;30.40;49.00;;;;;;4997775;28;92608;-59
2023/08/20 10:21:07;;;;;;;5.20;3.53;;;30.40;49.10;;;;;;4996049;28;92094;-59
2023/08/20 10:23:35;;;;;;;7.70;4.67;;;30.40;49.00;;;;;;4996887;28;95084;-59
2023/08/20 10:26:10;;;;;;;7.57;4.70;;;30.40;49.00;;;;;;4997592;28;94626;-60
2023/08/20 10:28:38;;;;;;;7.60;4.57;;;30.40;49.10;;;;;;4997585;28;91961;-59
2023/08/20 10:31:10;;;;;;;7.83;4.87;;;30.50;49.10;;;;;;4997053;28;92023;-60
2023/08/20 10:33:50;;;;;;;7.67;4.60;;;30.50;49.10;;;;;;4997336;28;93167;-59
2023/08/20 10:36:22;;;;;;;8.20;4.03;;;30.50;49.70;;;;;;4995679;28;93960;-60
2023/08/20 10:38:55;;;;;;;6.73;4.13;;;30.50;49.00;;;;;;4997752;28;92079;-59
2023/08/20 10:41:25;;;;;;;5.73;4.13;;;30.50;49.00;;;;;;4997474;28;91506;-59
2023/08/20 10:43:53;;;;;;;7.50;4.67;;;30.50;49.10;;;;;;4996121;28;93062;-59
2023/08/20 10:46:23;;;;;;;6.17;3.90;;;30.50;49.00;;;;;;4997240;28;92774;-59
2023/08/20 10:48:53;;;;;;;6.63;4.20;;;30.50;49.00;;;;;;4996689;28;92998;-60
2023/08/20 10:51:26;;;;;;;8.37;4.40;;;30.60;49.10;;;;;;4996376;28;92104;-60
2023/08/20 10:54:05;;;;;;;6.43;3.90;;;30.60;49.10;;;;;;4996960;28;93646;-59
2023/08/20 10:56:40;;;;;;;10.80;4.30;;;30.60;49.10;;;;;;4996104;28;92096;-59
2023/08/20 10:59:08;;;;;;;8.70;4.33;;;30.60;49.00;;;;;;4997214;28;92121;-59
2023/08/20 11:01:36;;;;;;;6.97;4.07;;;30.70;49.10;;;;;;4997430;28;92201;-59
2023/08/20 11:04:07;;;;;;;7.57;4.77;;;30.70;49.10;;;;;;4995776;28;93065;-59
2023/08/20 11:06:35;;;;;;;7.03;3.97;;;30.70;49.10;;;;;;4996984;28;94026;-59
2023/08/20 11:09:05;;;;;;;7.33;4.23;;;30.70;49.10;;;;;;4996701;28;92532;-59
2023/08/20 11:11:33;;;;;;;7.17;4.00;;;30.70;49.00;;;;;;4995924;28;92175;-59
2023/08/20 11:14:06;;;;;;;6.30;4.10;;;30.70;49.00;;;;;;4995990;28;94225;-59
2023/08/20 11:16:34;;;;;;;7.43;4.90;;;30.70;49.00;;;;;;4996246;28;93650;-59
2023/08/20 11:19:05;;;;;;;5.43;4.20;;;30.80;49.00;;;;;;4996923;28;92100;-59
2023/08/20 11:21:35;;;;;;;5.67;3.93;;;30.80;48.90;;;;;;4996543;28;92174;-59
2023/08/20 11:24:03;;;;;;;7.27;4.47;;;30.80;48.90;;;;;;4996661;28;94455;-59
2023/08/20 11:26:32;;;;;;;6.57;4.00;;;30.80;48.90;;;;;;4996978;28;93121;-59
2023/08/20 11:29:00;;;;;;;6.60;4.27;;;30.80;48.90;;;;;;4997045;28;92062;-59
2023/08/20 11:31:28;;;;;;;6.80;4.10;;;30.80;48.90;;;;;;4996602;28;91521;-59
2023/08/20 11:33:58;;;;;;;6.33;4.30;;;30.80;48.90;;;;;;4995696;28;92904;-59
2023/08/20 11:36:26;;;;;;;6.23;4.37;;;30.90;48.90;;;;;;4994924;28;94005;-59
2023/08/20 11:38:55;;;;;;;6.07;4.53;;;30.90;48.90;;;;;;4995302;28;93035;-59
2023/08/20 11:41:24;;;;;;;6.37;4.30;;;30.90;48.90;;;;;;4996008;28;92448;-59
2023/08/20 11:43:53;;;;;;;5.37;3.47;;;30.90;48.80;;;;;;4995016;28;93259;-59
2023/08/20 11:46:22;;;;;;;6.20;4.60;;;31.00;48.90;;;;;;4996120;28;93931;-59
2023/08/20 11:49:06;;;;;;;4.60;3.87;;;30.90;48.80;;;;;;4996639;28;92060;-59
2023/08/20 11:51:36;;;;;;;5.70;3.83;;;31.00;48.90;;;;;;4996573;28;92666;-59
2023/08/20 11:54:08;;;;;;;5.13;3.87;;;31.00;48.90;;;;;;4996294;28;93080;-59
2023/08/20 11:56:38;;;;;;;4.97;3.40;;;31.00;48.90;;;;;;4995352;28;92751;-59
2023/08/20 11:59:06;;;;;;;8.43;4.07;;;31.00;48.80;;;;;;4995956;28;92071;-59
2023/08/20 12:01:34;;;;;;;7.80;4.03;;;31.00;48.80;;;;;;4995182;28;92462;-59
2023/08/20 12:04:04;;;;;;;4.80;3.40;;;31.00;48.80;;;;;;4994853;28;95055;-60
2023/08/20 12:06:32;;;;;;;5.90;4.00;;;31.00;48.80;;;;;;4995037;28;93762;-60
2023/08/20 12:09:00;;;;;;;5.50;3.50;;;31.10;48.80;;;;;;4995559;28;92088;-59
2023/08/20 12:11:30;;;;;;;3.70;3.10;;;31.10;48.80;;;;;;4996266;28;92036;-60
2023/08/20 12:13:58;;;;;;;5.03;3.67;;;31.10;48.80;;;;;;4995005;28;94350;-59
2023/08/20 12:16:26;;;;;;;4.20;3.03;;;31.10;48.80;;;;;;4995032;28;92637;-59
2023/08/20 12:18:55;;;;;;;4.30;2.83;;;31.10;48.80;;;;;;4995749;28;92072;-60
2023/08/20 12:21:23;;;;;;;4.43;2.93;;;31.10;48.80;;;;;;4995988;28;91316;-59
2023/08/20 12:23:51;;;;;;;5.70;3.63;;;31.10;48.80;;;;;;4989912;28;92993;-59
2023/08/20 12:26:19;;;;;;;4.63;3.30;;;31.10;48.80;;;;;;4974456;28;93943;-59
2023/08/20 12:28:49;;;;;;;6.60;2.90;;;31.10;48.80;;;;;;4974205;28;93256;-59
2023/08/20 12:31:17;;;;;;;3.40;3.10;;;31.10;48.80;;;;;;4974946;28;92255;-59
2023/08/20 12:33:45;;;;;;;5.90;3.30;;;31.20;48.90;;;;;;4975284;28;94529;-61
2023/08/20 12:36:23;;;;;;;4.57;3.13;;;31.20;48.90;;;;;;5078899;27;87493;-60
2023/08/20 12:38:51;;;;;;;4.13;2.90;;;31.20;48.90;;;;;;5076718;27;87471;-59
2023/08/20 12:41:19;;;;;;;7.37;3.37;;;31.20;48.80;;;;;;5076395;27;87490;-60
2023/08/20 12:43:47;;;;;;;3.77;3.17;;;31.20;48.80;;;;;;5075702;27;88624;-59
2023/08/20 12:46:17;;;;;;;4.30;2.77;;;31.20;48.80;;;;;;5075394;27;87597;-60
2023/08/20 12:48:45;;;;;;;5.07;3.50;;;31.20;48.80;;;;;;5075763;27;87527;-59
2023/08/20 12:51:13;;;;;;;4.17;3.33;;;31.30;49.40;;;;;;5075859;27;88093;-60